sensor_id;sensor_type;location;lat;lon;timestamp;P1;durP1;ratioP1;P2;durP2;ratioP2
26377;SDS011;14078;50.974;6.786;2023-12-04T00:02:22;12.82;;;7.18;;
26377;SDS011;14078;50.974;6.786;2023-12-04T00:04:50;17.10;;;8.05;;
26377;SDS011;14078;50.974;6.786;2023-12-04T00:07:17;20.40;;;8.23;;
26377;SDS011;14078;50.974;6.786;2023-12-04T00:09:44;15.30;;;7.35;;
26377;SDS011;14078;50.974;6.786;2023-12-04T00:12:10;15.07;;;9.13;;
26377;SDS011;14078;50.974;6.786;2023-12-04T00:19:30;11.30;;;6.32;;
26377;SDS011;14078;50.974;6.786;2023-12-04T00:21:58;18.70;;;8.13;;
26377;SDS011;14078;50.974;6.786;2023-12-04T00:24:25;15.18;;;7.75;;
26377;SDS011;14078;50.974;6.786;2023-12-04T00:26:51;17.40;;;7.55;;
26377;SDS011;14078;50.974;6.786;2023-12-04T00:29:18;14.73;;;7.45;;
26377;SDS011;14078;50.974;6.786;2023-12-04T00:31:44;13.20;;;7.20;;
26377;SDS011;14078;50.974;6.786;2023-12-04T00:34:11;21.35;;;7.65;;
26377;SDS011;14078;50.974;6.786;2023-12-04T00:36:38;15.15;;;6.68;;
26377;SDS011;14078;50.974;6.786;2023-12-04T00:39:06;14.35;;;7.25;;
26377;SDS011;14078;50.974;6.786;2023-12-04T00:41:33;15.50;;;7.07;;
26377;SDS011;14078;50.974;6.786;2023-12-04T00:43:59;17.02;;;7.85;;
26377;SDS011;14078;50.974;6.786;2023-12-04T00:46:26;12.63;;;7.13;;
26377;SDS011;14078;50.974;6.786;2023-12-04T00:48:53;13.40;;;6.47;;
26377;SDS011;14078;50.974;6.786;2023-12-04T00:51:19;13.80;;;7.50;;
26377;SDS011;14078;50.974;6.786;2023-12-04T00:53:46;14.30;;;7.78;;
26377;SDS011;14078;50.974;6.786;2023-12-04T00:56:14;13.35;;;7.57;;
26377;SDS011;14078;50.974;6.786;2023-12-04T00:58:41;15.25;;;6.95;;
26377;SDS011;14078;50.974;6.786;2023-12-04T01:01:07;15.30;;;7.40;;
26377;SDS011;14078;50.974;6.786;2023-12-04T01:03:34;14.48;;;7.03;;
26377;SDS011;14078;50.974;6.786;2023-12-04T01:06:01;15.82;;;7.88;;
26377;SDS011;14078;50.974;6.786;2023-12-04T01:08:27;14.48;;;7.43;;
26377;SDS011;14078;50.974;6.786;2023-12-04T01:10:54;13.75;;;7.25;;
26377;SDS011;14078;50.974;6.786;2023-12-04T01:13:22;15.25;;;6.82;;
26377;SDS011;14078;50.974;6.786;2023-12-04T01:15:49;18.25;;;7.13;;
26377;SDS011;14078;50.974;6.786;2023-12-04T01:18:15;15.82;;;7.22;;
26377;SDS011;14078;50.974;6.786;2023-12-04T01:20:43;12.45;;;7.00;;
26377;SDS011;14078;50.974;6.786;2023-12-04T01:23:09;16.45;;;6.93;;
26377;SDS011;14078;50.974;6.786;2023-12-04T01:25:36;12.30;;;6.18;;
26377;SDS011;14078;50.974;6.786;2023-12-04T01:28:03;16.05;;;7.72;;
26377;SDS011;14078;50.974;6.786;2023-12-04T01:30:31;13.63;;;7.72;;
26377;SDS011;14078;50.974;6.786;2023-12-04T01:35:25;17.85;;;7.82;;
26377;SDS011;14078;50.974;6.786;2023-12-04T01:37:51;16.38;;;7.53;;
26377;SDS011;14078;50.974;6.786;2023-12-04T01:40:18;13.90;;;7.45;;
26377;SDS011;14078;50.974;6.786;2023-12-04T01:42:44;13.35;;;6.57;;
26377;SDS011;14078;50.974;6.786;2023-12-04T01:45:11;13.45;;;7.20;;
26377;SDS011;14078;50.974;6.786;2023-12-04T01:47:39;19.05;;;8.15;;
26377;SDS011;14078;50.974;6.786;2023-12-04T01:50:06;11.32;;;6.65;;
26377;SDS011;14078;50.974;6.786;2023-12-04T01:52:34;15.33;;;7.73;;
26377;SDS011;14078;50.974;6.786;2023-12-04T01:55:02;17.30;;;8.15;;
26377;SDS011;14078;50.974;6.786;2023-12-04T01:57:30;13.55;;;7.30;;
26377;SDS011;14078;50.974;6.786;2023-12-04T01:59:56;13.50;;;6.70;;
26377;SDS011;14078;50.974;6.786;2023-12-04T02:02:23;13.75;;;6.40;;
26377;SDS011;14078;50.974;6.786;2023-12-04T02:04:51;13.93;;;7.10;;
26377;SDS011;14078;50.974;6.786;2023-12-04T02:07:20;14.45;;;6.25;;
26377;SDS011;14078;50.974;6.786;2023-12-04T02:09:46;12.35;;;6.68;;
26377;SDS011;14078;50.974;6.786;2023-12-04T02:12:13;17.15;;;7.45;;
26377;SDS011;14078;50.974;6.786;2023-12-04T02:14:40;17.10;;;7.88;;
26377;SDS011;14078;50.974;6.786;2023-12-04T02:17:07;13.82;;;6.68;;
26377;SDS011;14078;50.974;6.786;2023-12-04T02:19:34;16.98;;;7.53;;
26377;SDS011;14078;50.974;6.786;2023-12-04T02:22:03;14.32;;;7.35;;
26377;SDS011;14078;50.974;6.786;2023-12-04T02:24:31;11.85;;;7.97;;
26377;SDS011;14078;50.974;6.786;2023-12-04T02:27:01;12.82;;;7.25;;
26377;SDS011;14078;50.974;6.786;2023-12-04T02:29:35;14.25;;;7.05;;
26377;SDS011;14078;50.974;6.786;2023-12-04T02:32:08;12.00;;;6.07;;
26377;SDS011;14078;50.974;6.786;2023-12-04T02:34:39;10.95;;;5.97;;
26377;SDS011;14078;50.974;6.786;2023-12-04T02:37:07;15.70;;;6.60;;
26377;SDS011;14078;50.974;6.786;2023-12-04T02:39:37;17.95;;;7.85;;
26377;SDS011;14078;50.974;6.786;2023-12-04T02:42:04;11.38;;;6.38;;
26377;SDS011;14078;50.974;6.786;2023-12-04T02:44:31;14.50;;;6.25;;
26377;SDS011;14078;50.974;6.786;2023-12-04T02:46:58;10.95;;;5.60;;
26377;SDS011;14078;50.974;6.786;2023-12-04T02:49:25;12.38;;;6.38;;
26377;SDS011;14078;50.974;6.786;2023-12-04T02:51:51;14.65;;;7.47;;
26377;SDS011;14078;50.974;6.786;2023-12-04T02:54:18;14.68;;;7.10;;
26377;SDS011;14078;50.974;6.786;2023-12-04T02:56:46;13.00;;;6.53;;
26377;SDS011;14078;50.974;6.786;2023-12-04T02:59:13;12.20;;;6.18;;
26377;SDS011;14078;50.974;6.786;2023-12-04T03:01:39;12.93;;;6.55;;
26377;SDS011;14078;50.974;6.786;2023-12-04T03:04:06;13.65;;;6.38;;
26377;SDS011;14078;50.974;6.786;2023-12-04T03:06:33;14.60;;;6.82;;
26377;SDS011;14078;50.974;6.786;2023-12-04T03:08:59;11.98;;;6.32;;
26377;SDS011;14078;50.974;6.786;2023-12-04T03:11:26;13.77;;;6.82;;
26377;SDS011;14078;50.974;6.786;2023-12-04T03:13:54;13.68;;;7.20;;
26377;SDS011;14078;50.974;6.786;2023-12-04T03:16:20;13.60;;;7.38;;
26377;SDS011;14078;50.974;6.786;2023-12-04T03:18:47;18.38;;;7.55;;
26377;SDS011;14078;50.974;6.786;2023-12-04T03:21:14;13.23;;;5.97;;
26377;SDS011;14078;50.974;6.786;2023-12-04T03:23:41;11.65;;;6.20;;
26377;SDS011;14078;50.974;6.786;2023-12-04T03:26:08;10.18;;;6.22;;
26377;SDS011;14078;50.974;6.786;2023-12-04T03:28:35;12.00;;;7.10;;
26377;SDS011;14078;50.974;6.786;2023-12-04T03:31:03;12.93;;;7.18;;
26377;SDS011;14078;50.974;6.786;2023-12-04T03:33:30;10.80;;;6.63;;
26377;SDS011;14078;50.974;6.786;2023-12-04T03:35:58;16.13;;;6.05;;
26377;SDS011;14078;50.974;6.786;2023-12-04T03:38:25;17.75;;;7.32;;
26377;SDS011;14078;50.974;6.786;2023-12-04T03:40:52;13.52;;;6.38;;
26377;SDS011;14078;50.974;6.786;2023-12-04T03:43:19;8.52;;;5.55;;
26377;SDS011;14078;50.974;6.786;2023-12-04T03:45:45;13.13;;;6.55;;
26377;SDS011;14078;50.974;6.786;2023-12-04T03:48:13;15.95;;;7.85;;
26377;SDS011;14078;50.974;6.786;2023-12-04T03:50:40;16.30;;;7.43;;
26377;SDS011;14078;50.974;6.786;2023-12-04T03:53:07;16.90;;;6.90;;
26377;SDS011;14078;50.974;6.786;2023-12-04T03:55:33;13.77;;;7.13;;
26377;SDS011;14078;50.974;6.786;2023-12-04T03:58:00;12.00;;;6.82;;
26377;SDS011;14078;50.974;6.786;2023-12-04T04:00:27;13.32;;;7.10;;
26377;SDS011;14078;50.974;6.786;2023-12-04T04:02:53;11.07;;;6.40;;
26377;SDS011;14078;50.974;6.786;2023-12-04T04:05:21;17.40;;;7.28;;
26377;SDS011;14078;50.974;6.786;2023-12-04T04:07:48;14.43;;;7.10;;
26377;SDS011;14078;50.974;6.786;2023-12-04T04:10:14;14.55;;;6.68;;
26377;SDS011;14078;50.974;6.786;2023-12-04T04:12:41;14.10;;;6.38;;
26377;SDS011;14078;50.974;6.786;2023-12-04T04:15:08;12.07;;;6.68;;
26377;SDS011;14078;50.974;6.786;2023-12-04T04:17:35;19.67;;;8.07;;
26377;SDS011;14078;50.974;6.786;2023-12-04T04:20:02;14.15;;;6.90;;
26377;SDS011;14078;50.974;6.786;2023-12-04T04:22:30;17.20;;;7.40;;
26377;SDS011;14078;50.974;6.786;2023-12-04T04:24:59;13.10;;;7.40;;
26377;SDS011;14078;50.974;6.786;2023-12-04T04:27:26;14.30;;;6.70;;
26377;SDS011;14078;50.974;6.786;2023-12-04T04:29:53;15.75;;;8.13;;
26377;SDS011;14078;50.974;6.786;2023-12-04T04:32:19;15.40;;;7.82;;
26377;SDS011;14078;50.974;6.786;2023-12-04T04:34:46;14.98;;;6.60;;
26377;SDS011;14078;50.974;6.786;2023-12-04T04:37:12;14.85;;;6.85;;
26377;SDS011;14078;50.974;6.786;2023-12-04T04:39:40;11.98;;;7.75;;
26377;SDS011;14078;50.974;6.786;2023-12-04T04:42:07;15.13;;;7.50;;
26377;SDS011;14078;50.974;6.786;2023-12-04T04:44:34;15.38;;;7.25;;
26377;SDS011;14078;50.974;6.786;2023-12-04T04:47:01;14.55;;;7.20;;
26377;SDS011;14078;50.974;6.786;2023-12-04T04:49:28;12.40;;;6.03;;
26377;SDS011;14078;50.974;6.786;2023-12-04T04:51:54;15.25;;;7.80;;
26377;SDS011;14078;50.974;6.786;2023-12-04T04:54:21;15.60;;;7.57;;
26377;SDS011;14078;50.974;6.786;2023-12-04T04:56:49;11.82;;;6.38;;
26377;SDS011;14078;50.974;6.786;2023-12-04T04:59:16;20.30;;;10.73;;
26377;SDS011;14078;50.974;6.786;2023-12-04T05:01:43;13.52;;;7.68;;
26377;SDS011;14078;50.974;6.786;2023-12-04T05:04:09;14.40;;;7.90;;
26377;SDS011;14078;50.974;6.786;2023-12-04T05:06:36;12.85;;;7.55;;
26377;SDS011;14078;50.974;6.786;2023-12-04T05:09:03;16.00;;;7.50;;
26377;SDS011;14078;50.974;6.786;2023-12-04T05:11:29;13.43;;;7.68;;
26377;SDS011;14078;50.974;6.786;2023-12-04T05:13:57;11.07;;;7.50;;
26377;SDS011;14078;50.974;6.786;2023-12-04T05:16:24;15.80;;;7.95;;
26377;SDS011;14078;50.974;6.786;2023-12-04T05:18:51;15.05;;;8.02;;
26377;SDS011;14078;50.974;6.786;2023-12-04T05:21:17;14.98;;;7.82;;
26377;SDS011;14078;50.974;6.786;2023-12-04T05:23:44;16.90;;;7.47;;
26377;SDS011;14078;50.974;6.786;2023-12-04T05:26:11;12.20;;;7.13;;
26377;SDS011;14078;50.974;6.786;2023-12-04T05:28:37;11.23;;;6.20;;
26377;SDS011;14078;50.974;6.786;2023-12-04T05:31:06;12.02;;;7.05;;
26377;SDS011;14078;50.974;6.786;2023-12-04T05:33:33;13.45;;;8.38;;
26377;SDS011;14078;50.974;6.786;2023-12-04T05:35:59;13.63;;;8.02;;
26377;SDS011;14078;50.974;6.786;2023-12-04T05:38:26;15.45;;;7.05;;
26377;SDS011;14078;50.974;6.786;2023-12-04T05:40:53;14.82;;;8.05;;
26377;SDS011;14078;50.974;6.786;2023-12-04T05:43:20;12.68;;;7.55;;
26377;SDS011;14078;50.974;6.786;2023-12-04T05:45:46;11.73;;;7.45;;
26377;SDS011;14078;50.974;6.786;2023-12-04T05:48:14;15.68;;;7.03;;
26377;SDS011;14078;50.974;6.786;2023-12-04T05:50:41;15.32;;;8.20;;
26377;SDS011;14078;50.974;6.786;2023-12-04T05:53:07;16.33;;;9.30;;
26377;SDS011;14078;50.974;6.786;2023-12-04T05:55:34;16.25;;;7.65;;
26377;SDS011;14078;50.974;6.786;2023-12-04T05:58:01;14.60;;;8.52;;
26377;SDS011;14078;50.974;6.786;2023-12-04T06:00:28;16.05;;;8.57;;
26377;SDS011;14078;50.974;6.786;2023-12-04T06:02:55;14.23;;;7.65;;
26377;SDS011;14078;50.974;6.786;2023-12-04T06:05:23;18.80;;;8.63;;
26377;SDS011;14078;50.974;6.786;2023-12-04T06:07:49;14.52;;;9.00;;
26377;SDS011;14078;50.974;6.786;2023-12-04T06:10:16;18.00;;;9.43;;
26377;SDS011;14078;50.974;6.786;2023-12-04T06:12:43;17.33;;;9.32;;
26377;SDS011;14078;50.974;6.786;2023-12-04T06:15:10;15.60;;;8.18;;
26377;SDS011;14078;50.974;6.786;2023-12-04T06:17:36;16.45;;;9.07;;
26377;SDS011;14078;50.974;6.786;2023-12-04T06:20:03;14.80;;;7.80;;
26377;SDS011;14078;50.974;6.786;2023-12-04T06:22:33;20.95;;;9.43;;
26377;SDS011;14078;50.974;6.786;2023-12-04T06:25:00;21.75;;;9.88;;
26377;SDS011;14078;50.974;6.786;2023-12-04T06:27:27;18.75;;;8.38;;
26377;SDS011;14078;50.974;6.786;2023-12-04T06:29:54;18.88;;;8.63;;
26377;SDS011;14078;50.974;6.786;2023-12-04T06:32:21;17.67;;;8.57;;
26377;SDS011;14078;50.974;6.786;2023-12-04T06:34:49;19.80;;;8.77;;
26377;SDS011;14078;50.974;6.786;2023-12-04T06:37:16;20.40;;;9.40;;
26377;SDS011;14078;50.974;6.786;2023-12-04T06:39:44;19.63;;;9.40;;
26377;SDS011;14078;50.974;6.786;2023-12-04T06:42:14;17.85;;;8.27;;
26377;SDS011;14078;50.974;6.786;2023-12-04T06:44:41;16.65;;;7.93;;
26377;SDS011;14078;50.974;6.786;2023-12-04T06:47:08;19.25;;;9.35;;
26377;SDS011;14078;50.974;6.786;2023-12-04T06:52:04;18.30;;;9.20;;
26377;SDS011;14078;50.974;6.786;2023-12-04T06:54:31;19.02;;;8.65;;
26377;SDS011;14078;50.974;6.786;2023-12-04T06:56:59;15.95;;;8.98;;
26377;SDS011;14078;50.974;6.786;2023-12-04T06:59:26;14.07;;;8.45;;
26377;SDS011;14078;50.974;6.786;2023-12-04T07:01:53;17.08;;;8.00;;
26377;SDS011;14078;50.974;6.786;2023-12-04T07:04:19;19.35;;;9.07;;
26377;SDS011;14078;50.974;6.786;2023-12-04T07:06:47;15.15;;;8.63;;
26377;SDS011;14078;50.974;6.786;2023-12-04T07:09:14;19.23;;;9.48;;
26377;SDS011;14078;50.974;6.786;2023-12-04T07:11:41;16.75;;;8.68;;
26377;SDS011;14078;50.974;6.786;2023-12-04T07:14:10;17.48;;;9.18;;
26377;SDS011;14078;50.974;6.786;2023-12-04T07:16:40;21.90;;;9.50;;
26377;SDS011;14078;50.974;6.786;2023-12-04T07:19:07;22.35;;;9.50;;
26377;SDS011;14078;50.974;6.786;2023-12-04T07:21:34;15.63;;;8.10;;
26377;SDS011;14078;50.974;6.786;2023-12-04T07:24:01;18.10;;;9.32;;
26377;SDS011;14078;50.974;6.786;2023-12-04T07:26:28;22.70;;;8.75;;
26377;SDS011;14078;50.974;6.786;2023-12-04T07:28:54;18.92;;;9.27;;
26377;SDS011;14078;50.974;6.786;2023-12-04T07:31:22;18.48;;;9.50;;
26377;SDS011;14078;50.974;6.786;2023-12-04T07:33:51;18.65;;;9.45;;
26377;SDS011;14078;50.974;6.786;2023-12-04T07:36:17;15.15;;;8.65;;
26377;SDS011;14078;50.974;6.786;2023-12-04T07:38:44;17.48;;;9.68;;
26377;SDS011;14078;50.974;6.786;2023-12-04T07:41:11;20.83;;;8.75;;
26377;SDS011;14078;50.974;6.786;2023-12-04T07:43:38;18.42;;;9.05;;
26377;SDS011;14078;50.974;6.786;2023-12-04T07:46:05;22.55;;;10.50;;
26377;SDS011;14078;50.974;6.786;2023-12-04T07:48:33;17.45;;;9.10;;
26377;SDS011;14078;50.974;6.786;2023-12-04T07:51:00;22.73;;;9.75;;
26377;SDS011;14078;50.974;6.786;2023-12-04T07:53:27;17.88;;;9.45;;
26377;SDS011;14078;50.974;6.786;2023-12-04T07:55:54;19.48;;;9.63;;
26377;SDS011;14078;50.974;6.786;2023-12-04T07:58:20;19.25;;;9.18;;
26377;SDS011;14078;50.974;6.786;2023-12-04T08:00:47;19.60;;;9.20;;
26377;SDS011;14078;50.974;6.786;2023-12-04T08:03:15;18.95;;;9.27;;
26377;SDS011;14078;50.974;6.786;2023-12-04T08:05:43;18.60;;;8.60;;
26377;SDS011;14078;50.974;6.786;2023-12-04T08:08:09;19.92;;;9.30;;
26377;SDS011;14078;50.974;6.786;2023-12-04T08:10:36;21.30;;;8.77;;
26377;SDS011;14078;50.974;6.786;2023-12-04T08:13:03;17.10;;;8.75;;
26377;SDS011;14078;50.974;6.786;2023-12-04T08:15:30;18.05;;;9.23;;
26377;SDS011;14078;50.974;6.786;2023-12-04T08:17:56;18.83;;;9.32;;
26377;SDS011;14078;50.974;6.786;2023-12-04T08:20:23;16.30;;;8.80;;
26377;SDS011;14078;50.974;6.786;2023-12-04T08:22:51;18.92;;;9.80;;
26377;SDS011;14078;50.974;6.786;2023-12-04T08:25:19;19.83;;;9.68;;
26377;SDS011;14078;50.974;6.786;2023-12-04T08:27:46;17.88;;;9.38;;
26377;SDS011;14078;50.974;6.786;2023-12-04T08:30:14;16.88;;;8.75;;
26377;SDS011;14078;50.974;6.786;2023-12-04T08:32:41;19.65;;;8.75;;
26377;SDS011;14078;50.974;6.786;2023-12-04T08:35:08;19.15;;;9.48;;
26377;SDS011;14078;50.974;6.786;2023-12-04T08:37:34;21.67;;;9.48;;
26377;SDS011;14078;50.974;6.786;2023-12-04T08:40:02;18.80;;;8.20;;
26377;SDS011;14078;50.974;6.786;2023-12-04T08:42:30;17.67;;;9.30;;
26377;SDS011;14078;50.974;6.786;2023-12-04T08:44:56;15.43;;;8.70;;
26377;SDS011;14078;50.974;6.786;2023-12-04T08:47:23;16.15;;;9.10;;
26377;SDS011;14078;50.974;6.786;2023-12-04T08:49:50;20.70;;;9.20;;
26377;SDS011;14078;50.974;6.786;2023-12-04T08:52:17;13.18;;;8.27;;
26377;SDS011;14078;50.974;6.786;2023-12-04T08:54:43;19.73;;;9.57;;
26377;SDS011;14078;50.974;6.786;2023-12-04T08:57:11;18.98;;;8.52;;
26377;SDS011;14078;50.974;6.786;2023-12-04T08:59:38;17.50;;;8.95;;
26377;SDS011;14078;50.974;6.786;2023-12-04T09:02:05;17.13;;;8.13;;
26377;SDS011;14078;50.974;6.786;2023-12-04T09:04:32;15.00;;;7.85;;
26377;SDS011;14078;50.974;6.786;2023-12-04T09:06:59;20.90;;;9.85;;
26377;SDS011;14078;50.974;6.786;2023-12-04T09:09:26;19.30;;;9.30;;
26377;SDS011;14078;50.974;6.786;2023-12-04T09:11:52;21.50;;;10.23;;
26377;SDS011;14078;50.974;6.786;2023-12-04T09:14:20;15.43;;;8.25;;
26377;SDS011;14078;50.974;6.786;2023-12-04T09:16:47;19.65;;;8.27;;
26377;SDS011;14078;50.974;6.786;2023-12-04T09:19:13;18.98;;;8.85;;
26377;SDS011;14078;50.974;6.786;2023-12-04T09:21:40;16.75;;;8.20;;
26377;SDS011;14078;50.974;6.786;2023-12-04T09:24:09;16.73;;;7.97;;
26377;SDS011;14078;50.974;6.786;2023-12-04T09:26:35;17.45;;;8.98;;
26377;SDS011;14078;50.974;6.786;2023-12-04T09:29:02;16.83;;;7.60;;
26377;SDS011;14078;50.974;6.786;2023-12-04T09:31:30;10.90;;;6.95;;
26377;SDS011;14078;50.974;6.786;2023-12-04T09:33:57;18.40;;;7.85;;
26377;SDS011;14078;50.974;6.786;2023-12-04T09:36:23;21.38;;;9.77;;
26377;SDS011;14078;50.974;6.786;2023-12-04T09:38:50;17.20;;;8.20;;
26377;SDS011;14078;50.974;6.786;2023-12-04T09:41:17;10.02;;;6.93;;
26377;SDS011;14078;50.974;6.786;2023-12-04T09:43:46;21.52;;;10.88;;
26377;SDS011;14078;50.974;6.786;2023-12-04T09:46:13;12.48;;;6.88;;
26377;SDS011;14078;50.974;6.786;2023-12-04T09:48:43;14.30;;;7.70;;
26377;SDS011;14078;50.974;6.786;2023-12-04T09:51:11;12.15;;;7.88;;
26377;SDS011;14078;50.974;6.786;2023-12-04T09:53:40;16.67;;;8.30;;
26377;SDS011;14078;50.974;6.786;2023-12-04T09:56:07;14.10;;;8.32;;
26377;SDS011;14078;50.974;6.786;2023-12-04T09:58:34;22.58;;;9.38;;
26377;SDS011;14078;50.974;6.786;2023-12-04T10:01:05;16.38;;;9.15;;
26377;SDS011;14078;50.974;6.786;2023-12-04T10:03:33;15.40;;;7.85;;
26377;SDS011;14078;50.974;6.786;2023-12-04T10:06:02;19.05;;;7.53;;
26377;SDS011;14078;50.974;6.786;2023-12-04T10:08:30;14.60;;;7.43;;
26377;SDS011;14078;50.974;6.786;2023-12-04T10:10:57;17.23;;;7.82;;
26377;SDS011;14078;50.974;6.786;2023-12-04T10:13:26;16.63;;;8.48;;
26377;SDS011;14078;50.974;6.786;2023-12-04T10:15:53;14.32;;;7.68;;
26377;SDS011;14078;50.974;6.786;2023-12-04T10:18:24;16.83;;;7.95;;
26377;SDS011;14078;50.974;6.786;2023-12-04T10:20:51;12.85;;;6.80;;
26377;SDS011;14078;50.974;6.786;2023-12-04T10:23:20;14.63;;;7.50;;
26377;SDS011;14078;50.974;6.786;2023-12-04T10:25:48;17.50;;;7.80;;
26377;SDS011;14078;50.974;6.786;2023-12-04T10:28:15;13.68;;;7.15;;
26377;SDS011;14078;50.974;6.786;2023-12-04T10:30:42;13.88;;;7.50;;
26377;SDS011;14078;50.974;6.786;2023-12-04T10:33:09;13.85;;;7.72;;
26377;SDS011;14078;50.974;6.786;2023-12-04T10:35:36;16.50;;;8.45;;
26377;SDS011;14078;50.974;6.786;2023-12-04T10:38:03;14.70;;;7.30;;
26377;SDS011;14078;50.974;6.786;2023-12-04T10:40:33;12.95;;;6.40;;
26377;SDS011;14078;50.974;6.786;2023-12-04T10:43:10;14.15;;;7.03;;
26377;SDS011;14078;50.974;6.786;2023-12-04T10:45:38;10.95;;;6.78;;
26377;SDS011;14078;50.974;6.786;2023-12-04T10:48:06;12.18;;;7.88;;
26377;SDS011;14078;50.974;6.786;2023-12-04T10:50:34;12.95;;;7.45;;
26377;SDS011;14078;50.974;6.786;2023-12-04T10:53:03;14.40;;;6.60;;
26377;SDS011;14078;50.974;6.786;2023-12-04T10:55:30;13.00;;;7.38;;
26377;SDS011;14078;50.974;6.786;2023-12-04T10:57:58;13.35;;;6.85;;
26377;SDS011;14078;50.974;6.786;2023-12-04T11:00:26;10.65;;;6.65;;
26377;SDS011;14078;50.974;6.786;2023-12-04T11:02:55;13.73;;;7.05;;
26377;SDS011;14078;50.974;6.786;2023-12-04T11:05:23;17.38;;;8.38;;
26377;SDS011;14078;50.974;6.786;2023-12-04T11:07:51;14.52;;;8.02;;
26377;SDS011;14078;50.974;6.786;2023-12-04T11:10:24;13.57;;;6.40;;
26377;SDS011;14078;50.974;6.786;2023-12-04T11:12:54;16.25;;;7.15;;
26377;SDS011;14078;50.974;6.786;2023-12-04T11:15:25;14.77;;;6.90;;
26377;SDS011;14078;50.974;6.786;2023-12-04T11:17:57;15.20;;;7.28;;
26377;SDS011;14078;50.974;6.786;2023-12-04T11:20:26;16.13;;;7.43;;
26377;SDS011;14078;50.974;6.786;2023-12-04T11:25:21;12.02;;;6.97;;
26377;SDS011;14078;50.974;6.786;2023-12-04T11:27:50;15.73;;;8.27;;
26377;SDS011;14078;50.974;6.786;2023-12-04T11:30:17;16.08;;;7.32;;
26377;SDS011;14078;50.974;6.786;2023-12-04T11:32:46;14.18;;;7.93;;
26377;SDS011;14078;50.974;6.786;2023-12-04T11:35:16;14.95;;;7.88;;
26377;SDS011;14078;50.974;6.786;2023-12-04T11:37:43;18.45;;;7.88;;
26377;SDS011;14078;50.974;6.786;2023-12-04T11:40:11;15.73;;;8.63;;
26377;SDS011;14078;50.974;6.786;2023-12-04T11:42:39;16.50;;;9.32;;
26377;SDS011;14078;50.974;6.786;2023-12-04T11:45:06;15.95;;;8.30;;
26377;SDS011;14078;50.974;6.786;2023-12-04T11:50:29;12.55;;;7.22;;
26377;SDS011;14078;50.974;6.786;2023-12-04T11:52:56;17.38;;;8.55;;
26377;SDS011;14078;50.974;6.786;2023-12-04T11:55:23;17.95;;;9.85;;
26377;SDS011;14078;50.974;6.786;2023-12-04T11:57:54;17.48;;;9.90;;
26377;SDS011;14078;50.974;6.786;2023-12-04T12:00:23;20.92;;;8.27;;
26377;SDS011;14078;50.974;6.786;2023-12-04T12:05:36;22.48;;;10.73;;
26377;SDS011;14078;50.974;6.786;2023-12-04T12:08:04;21.15;;;9.25;;
26377;SDS011;14078;50.974;6.786;2023-12-04T12:10:32;16.83;;;9.00;;
26377;SDS011;14078;50.974;6.786;2023-12-04T12:12:59;20.85;;;9.20;;
26377;SDS011;14078;50.974;6.786;2023-12-04T12:15:27;21.15;;;9.55;;
26377;SDS011;14078;50.974;6.786;2023-12-04T12:17:54;23.30;;;10.32;;
26377;SDS011;14078;50.974;6.786;2023-12-04T12:20:21;20.42;;;9.35;;
26377;SDS011;14078;50.974;6.786;2023-12-04T12:22:49;18.95;;;9.05;;
26377;SDS011;14078;50.974;6.786;2023-12-04T12:25:15;17.75;;;8.60;;
26377;SDS011;14078;50.974;6.786;2023-12-04T12:27:44;19.52;;;9.80;;
26377;SDS011;14078;50.974;6.786;2023-12-04T12:30:11;20.60;;;9.13;;
26377;SDS011;14078;50.974;6.786;2023-12-04T12:32:38;18.10;;;8.88;;
26377;SDS011;14078;50.974;6.786;2023-12-04T12:35:05;18.95;;;9.07;;
26377;SDS011;14078;50.974;6.786;2023-12-04T12:37:33;21.33;;;8.75;;
26377;SDS011;14078;50.974;6.786;2023-12-04T12:40:02;20.58;;;9.48;;
26377;SDS011;14078;50.974;6.786;2023-12-04T12:42:30;19.65;;;9.52;;
26377;SDS011;14078;50.974;6.786;2023-12-04T12:44:59;16.38;;;9.57;;
26377;SDS011;14078;50.974;6.786;2023-12-04T12:49:55;19.92;;;8.77;;
26377;SDS011;14078;50.974;6.786;2023-12-04T12:52:21;20.10;;;9.32;;
26377;SDS011;14078;50.974;6.786;2023-12-04T12:54:48;20.25;;;9.68;;
26377;SDS011;14078;50.974;6.786;2023-12-04T12:57:16;24.20;;;10.48;;
26377;SDS011;14078;50.974;6.786;2023-12-04T12:59:43;16.23;;;9.35;;
26377;SDS011;14078;50.974;6.786;2023-12-04T13:02:10;18.92;;;9.63;;
26377;SDS011;14078;50.974;6.786;2023-12-04T13:04:37;17.75;;;8.40;;
26377;SDS011;14078;50.974;6.786;2023-12-04T13:07:06;19.48;;;9.23;;
26377;SDS011;14078;50.974;6.786;2023-12-04T13:09:34;19.38;;;8.90;;
26377;SDS011;14078;50.974;6.786;2023-12-04T13:12:01;16.38;;;8.93;;
26377;SDS011;14078;50.974;6.786;2023-12-04T13:14:30;16.02;;;8.80;;
26377;SDS011;14078;50.974;6.786;2023-12-04T13:16:57;17.02;;;7.80;;
26377;SDS011;14078;50.974;6.786;2023-12-04T13:19:24;17.58;;;8.52;;
26377;SDS011;14078;50.974;6.786;2023-12-04T13:21:50;14.95;;;7.85;;
26377;SDS011;14078;50.974;6.786;2023-12-04T13:24:17;14.70;;;7.57;;
26377;SDS011;14078;50.974;6.786;2023-12-04T13:26:44;18.20;;;9.77;;
26377;SDS011;14078;50.974;6.786;2023-12-04T13:29:11;13.10;;;7.65;;
26377;SDS011;14078;50.974;6.786;2023-12-04T13:31:42;14.15;;;7.88;;
26377;SDS011;14078;50.974;6.786;2023-12-04T13:34:08;14.82;;;8.07;;
26377;SDS011;14078;50.974;6.786;2023-12-04T13:36:36;14.82;;;7.30;;
26377;SDS011;14078;50.974;6.786;2023-12-04T13:39:03;16.48;;;7.93;;
26377;SDS011;14078;50.974;6.786;2023-12-04T13:41:30;14.88;;;8.40;;
26377;SDS011;14078;50.974;6.786;2023-12-04T13:44:15;19.25;;;9.52;;
26377;SDS011;14078;50.974;6.786;2023-12-04T13:46:43;20.55;;;9.02;;
26377;SDS011;14078;50.974;6.786;2023-12-04T13:49:09;16.07;;;7.33;;
26377;SDS011;14078;50.974;6.786;2023-12-04T13:51:36;16.98;;;7.47;;
26377;SDS011;14078;50.974;6.786;2023-12-04T13:54:05;14.13;;;7.45;;
26377;SDS011;14078;50.974;6.786;2023-12-04T13:56:45;16.08;;;7.80;;
26377;SDS011;14078;50.974;6.786;2023-12-04T13:59:18;18.42;;;8.30;;
26377;SDS011;14078;50.974;6.786;2023-12-04T14:01:46;14.52;;;7.57;;
26377;SDS011;14078;50.974;6.786;2023-12-04T14:04:14;12.20;;;7.90;;
26377;SDS011;14078;50.974;6.786;2023-12-04T14:06:41;19.05;;;8.95;;
26377;SDS011;14078;50.974;6.786;2023-12-04T14:09:08;14.88;;;8.15;;
26377;SDS011;14078;50.974;6.786;2023-12-04T14:11:39;14.93;;;7.70;;
26377;SDS011;14078;50.974;6.786;2023-12-04T14:14:09;15.63;;;8.82;;
26377;SDS011;14078;50.974;6.786;2023-12-04T14:16:36;15.63;;;8.20;;
26377;SDS011;14078;50.974;6.786;2023-12-04T14:19:03;13.38;;;6.90;;
26377;SDS011;14078;50.974;6.786;2023-12-04T14:21:30;19.27;;;8.37;;
26377;SDS011;14078;50.974;6.786;2023-12-04T14:23:57;14.73;;;7.25;;
26377;SDS011;14078;50.974;6.786;2023-12-04T14:26:25;13.35;;;7.60;;
26377;SDS011;14078;50.974;6.786;2023-12-04T14:28:52;17.02;;;7.13;;
26377;SDS011;14078;50.974;6.786;2023-12-04T14:31:19;16.42;;;8.45;;
26377;SDS011;14078;50.974;6.786;2023-12-04T14:33:46;10.70;;;7.22;;
26377;SDS011;14078;50.974;6.786;2023-12-04T14:36:14;14.73;;;7.40;;
26377;SDS011;14078;50.974;6.786;2023-12-04T14:38:41;18.30;;;7.95;;
26377;SDS011;14078;50.974;6.786;2023-12-04T14:41:08;11.80;;;7.75;;
26377;SDS011;14078;50.974;6.786;2023-12-04T14:43:35;12.90;;;7.00;;
26377;SDS011;14078;50.974;6.786;2023-12-04T14:46:03;12.25;;;7.50;;
26377;SDS011;14078;50.974;6.786;2023-12-04T14:48:30;17.10;;;8.50;;
26377;SDS011;14078;50.974;6.786;2023-12-04T14:50:56;17.00;;;8.55;;
26377;SDS011;14078;50.974;6.786;2023-12-04T14:53:24;24.20;;;7.55;;
26377;SDS011;14078;50.974;6.786;2023-12-04T14:55:55;16.08;;;8.20;;